sensor_id;sensor_type;location;lat;lon;timestamp;temperature;humidity
11043;DHT22;5574;48.786;10.120;2023-08-08T18:47:22;18.20;97.50
11043;DHT22;5574;48.786;10.120;2023-08-08T18:49:48;18.30;99.20
11043;DHT22;5574;48.786;10.120;2023-08-08T18:52:15;18.20;99.30
11043;DHT22;5574;48.786;10.120;2023-08-08T18:54:41;18.20;99.00
11043;DHT22;5574;48.786;10.120;2023-08-08T18:57:08;18.20;99.60
11043;DHT22;5574;48.786;10.120;2023-08-08T18:59:35;18.10;99.90
11043;DHT22;5574;48.786;10.120;2023-08-08T19:02:01;18.00;98.90
11043;DHT22;5574;48.786;10.120;2023-08-08T19:04:30;18.00;99.90
11043;DHT22;5574;48.786;10.120;2023-08-08T19:06:56;17.90;99.90
11043;DHT22;5574;48.786;10.120;2023-08-08T19:09:23;17.80;99.90
11043;DHT22;5574;48.786;10.120;2023-08-08T19:11:50;17.80;99.90
11043;DHT22;5574;48.786;10.120;2023-08-08T19:14:17;17.70;99.90
11043;DHT22;5574;48.786;10.120;2023-08-08T19:16:44;17.70;99.90
11043;DHT22;5574;48.786;10.120;2023-08-08T19:19:10;17.60;99.90
11043;DHT22;5574;48.786;10.120;2023-08-08T19:21:39;17.60;99.90
11043;DHT22;5574;48.786;10.120;2023-08-08T19:24:06;17.50;99.90
11043;DHT22;5574;48.786;10.120;2023-08-08T19:26:33;17.40;99.90
11043;DHT22;5574;48.786;10.120;2023-08-08T19:29:00;17.40;99.90
11043;DHT22;5574;48.786;10.120;2023-08-08T19:31:27;17.30;99.90
11043;DHT22;5574;48.786;10.120;2023-08-08T19:33:53;17.20;99.90
11043;DHT22;5574;48.786;10.120;2023-08-08T19:36:20;17.20;99.90
11043;DHT22;5574;48.786;10.120;2023-08-08T19:38:48;17.10;99.90
11043;DHT22;5574;48.786;10.120;2023-08-08T19:41:15;17.10;99.90
11043;DHT22;5574;48.786;10.120;2023-08-08T19:43:41;17.10;99.90
11043;DHT22;5574;48.786;10.120;2023-08-08T19:46:08;17.00;99.90
11043;DHT22;5574;48.786;10.120;2023-08-08T19:48:35;17.00;99.90
11043;DHT22;5574;48.786;10.120;2023-08-08T19:51:01;16.90;99.90
11043;DHT22;5574;48.786;10.120;2023-08-08T19:53:28;16.90;99.90
11043;DHT22;5574;48.786;10.120;2023-08-08T19:55:56;16.90;99.90
11043;DHT22;5574;48.786;10.120;2023-08-08T19:58:26;16.90;99.90
11043;DHT22;5574;48.786;10.120;2023-08-08T20:00:53;16.90;99.90
11043;DHT22;5574;48.786;10.120;2023-08-08T20:03:19;16.90;99.90
11043;DHT22;5574;48.786;10.120;2023-08-08T20:05:46;16.90;99.90
11043;DHT22;5574;48.786;10.120;2023-08-08T20:08:13;16.80;99.90
11043;DHT22;5574;48.786;10.120;2023-08-08T20:10:39;16.80;99.90
11043;DHT22;5574;48.786;10.120;2023-08-08T20:13:07;16.70;99.90
11043;DHT22;5574;48.786;10.120;2023-08-08T20:15:35;16.70;99.90
11043;DHT22;5574;48.786;10.120;2023-08-08T20:18:03;16.70;99.90
11043;DHT22;5574;48.786;10.120;2023-08-08T20:20:29;16.60;99.90
11043;DHT22;5574;48.786;10.120;2023-08-08T20:22:56;16.60;99.90
11043;DHT22;5574;48.786;10.120;2023-08-08T20:25:23;16.70;99.90
11043;DHT22;5574;48.786;10.120;2023-08-08T20:27:49;16.70;99.90
11043;DHT22;5574;48.786;10.120;2023-08-08T20:30:17;16.70;99.90
11043;DHT22;5574;48.786;10.120;2023-08-08T20:32:44;16.60;99.90
11043;DHT22;5574;48.786;10.120;2023-08-08T20:35:11;16.60;99.90
11043;DHT22;5574;48.786;10.120;2023-08-08T20:37:37;16.60;99.90
11043;DHT22;5574;48.786;10.120;2023-08-08T20:40:05;16.60;99.90
11043;DHT22;5574;48.786;10.120;2023-08-08T20:42:32;16.60;99.90
11043;DHT22;5574;48.786;10.120;2023-08-08T20:44:58;16.50;99.90
11043;DHT22;5574;48.786;10.120;2023-08-08T20:47:26;16.60;99.90
11043;DHT22;5574;48.786;10.120;2023-08-08T20:49:53;16.50;99.90
11043;DHT22;5574;48.786;10.120;2023-08-08T20:52:20;16.50;99.90
11043;DHT22;5574;48.786;10.120;2023-08-08T20:54:46;16.50;99.90
11043;DHT22;5574;48.786;10.120;2023-08-08T20:57:13;16.50;99.90
11043;DHT22;5574;48.786;10.120;2023-08-08T20:59:40;16.50;99.90
11043;DHT22;5574;48.786;10.120;2023-08-08T21:02:08;16.40;99.90
11043;DHT22;5574;48.786;10.120;2023-08-08T21:04:36;16.40;99.90
11043;DHT22;5574;48.786;10.120;2023-08-08T21:07:03;16.40;99.90
11043;DHT22;5574;48.786;10.120;2023-08-08T21:09:31;16.40;99.90
11043;DHT22;5574;48.786;10.120;2023-08-08T21:11:57;16.40;99.90
11043;DHT22;5574;48.786;10.120;2023-08-08T21:14:24;16.30;99.90
11043;DHT22;5574;48.786;10.120;2023-08-08T21:16:51;16.40;99.90
11043;DHT22;5574;48.786;10.120;2023-08-08T21:19:17;16.40;99.90
11043;DHT22;5574;48.786;10.120;2023-08-08T21:21:45;16.30;99.90
11043;DHT22;5574;48.786;10.120;2023-08-08T21:24:12;16.30;99.90
11043;DHT22;5574;48.786;10.120;2023-08-08T21:26:39;16.30;99.90
11043;DHT22;5574;48.786;10.120;2023-08-08T21:29:06;16.30;99.90
11043;DHT22;5574;48.786;10.120;2023-08-08T21:31:32;16.20;99.90
11043;DHT22;5574;48.786;10.120;2023-08-08T21:33:59;16.20;99.90
11043;DHT22;5574;48.786;10.120;2023-08-08T21:36:25;16.20;99.90
11043;DHT22;5574;48.786;10.120;2023-08-08T21:38:53;16.20;99.90
11043;DHT22;5574;48.786;10.120;2023-08-08T21:41:20;16.20;99.90
11043;DHT22;5574;48.786;10.120;2023-08-08T21:43:47;16.20;99.90
11043;DHT22;5574;48.786;10.120;2023-08-08T21:46:14;16.10;99.90
11043;DHT22;5574;48.786;10.120;2023-08-08T21:48:40;16.10;99.90
11043;DHT22;5574;48.786;10.120;2023-08-08T21:51:07;16.10;99.90
11043;DHT22;5574;48.786;10.120;2023-08-08T21:53:35;16.10;99.90
11043;DHT22;5574;48.786;10.120;2023-08-08T21:56:04;16.00;99.90
11043;DHT22;5574;48.786;10.120;2023-08-08T21:58:30;16.00;99.90
11043;DHT22;5574;48.786;10.120;2023-08-08T22:00:57;16.00;99.90
11043;DHT22;5574;48.786;10.120;2023-08-08T22:03:24;16.00;99.90
11043;DHT22;5574;48.786;10.120;2023-08-08T22:05:51;16.00;99.90
11043;DHT22;5574;48.786;10.120;2023-08-08T22:08:18;16.00;99.90
11043;DHT22;5574;48.786;10.120;2023-08-08T22:10:45;16.00;99.90
11043;DHT22;5574;48.786;10.120;2023-08-08T22:13:13;15.90;99.90
11043;DHT22;5574;48.786;10.120;2023-08-08T22:15:40;15.90;99.90
11043;DHT22;5574;48.786;10.120;2023-08-08T22:18:10;15.90;99.90
11043;DHT22;5574;48.786;10.120;2023-08-08T22:20:37;15.80;99.90
11043;DHT22;5574;48.786;10.120;2023-08-08T22:23:04;15.80;99.90
11043;DHT22;5574;48.786;10.120;2023-08-08T22:25:31;15.80;99.90
11043;DHT22;5574;48.786;10.120;2023-08-08T22:27:57;15.80;99.90
11043;DHT22;5574;48.786;10.120;2023-08-08T22:30:25;15.80;99.90
11043;DHT22;5574;48.786;10.120;2023-08-08T22:32:52;15.80;99.90
11043;DHT22;5574;48.786;10.120;2023-08-08T22:35:19;15.80;99.90
11043;DHT22;5574;48.786;10.120;2023-08-08T22:37:46;15.70;99.90
11043;DHT22;5574;48.786;10.120;2023-08-08T22:40:13;15.70;99.90
11043;DHT22;5574;48.786;10.120;2023-08-08T22:42:40;15.70;99.90
11043;DHT22;5574;48.786;10.120;2023-08-08T22:45:09;15.70;99.90
11043;DHT22;5574;48.786;10.120;2023-08-08T22:47:37;15.70;99.90
11043;DHT22;5574;48.786;10.120;2023-08-08T22:50:05;15.70;99.90
11043;DHT22;5574;48.786;10.120;2023-08-08T22:52:32;15.70;99.90
11043;DHT22;5574;48.786;10.120;2023-08-08T22:54:59;15.60;99.90
11043;DHT22;5574;48.786;10.120;2023-08-08T22:57:25;15.60;99.90
11043;DHT22;5574;48.786;10.120;2023-08-08T22:59:52;15.70;99.90
11043;DHT22;5574;48.786;10.120;2023-08-08T23:02:19;15.70;99.90
11043;DHT22;5574;48.786;10.120;2023-08-08T23:04:47;15.70;99.90
11043;DHT22;5574;48.786;10.120;2023-08-08T23:07:13;15.70;99.90
11043;DHT22;5574;48.786;10.120;2023-08-08T23:09:41;15.70;99.90
11043;DHT22;5574;48.786;10.120;2023-08-08T23:12:08;15.70;99.90
11043;DHT22;5574;48.786;10.120;2023-08-08T23:14:34;15.70;99.90
11043;DHT22;5574;48.786;10.120;2023-08-08T23:17:01;15.60;99.90
11043;DHT22;5574;48.786;10.120;2023-08-08T23:19:28;15.60;99.90
11043;DHT22;5574;48.786;10.120;2023-08-08T23:21:56;15.50;99.90
11043;DHT22;5574;48.786;10.120;2023-08-08T23:24:23;15.60;99.90
11043;DHT22;5574;48.786;10.120;2023-08-08T23:26:50;15.50;99.90
11043;DHT22;5574;48.786;10.120;2023-08-08T23:29:16;15.50;99.90
11043;DHT22;5574;48.786;10.120;2023-08-08T23:31:43;15.50;99.90
11043;DHT22;5574;48.786;10.120;2023-08-08T23:34:10;15.50;99.90
11043;DHT22;5574;48.786;10.120;2023-08-08T23:36:36;15.50;99.90
11043;DHT22;5574;48.786;10.120;2023-08-08T23:39:05;15.50;99.90
11043;DHT22;5574;48.786;10.120;2023-08-08T23:41:33;15.50;99.90
11043;DHT22;5574;48.786;10.120;2023-08-08T23:44:00;15.50;99.90
11043;DHT22;5574;48.786;10.120;2023-08-08T23:46:26;15.50;99.90
11043;DHT22;5574;48.786;10.120;2023-08-08T23:48:53;15.50;99.90
11043;DHT22;5574;48.786;10.120;2023-08-08T23:51:20;15.50;99.90
11043;DHT22;5574;48.786;10.120;2023-08-08T23:53:46;15.40;99.90
11043;DHT22;5574;48.786;10.120;2023-08-08T23:56:14;15.40;99.90
11043;DHT22;5574;48.786;10.120;2023-08-08T23:58:41;15.40;99.90
